Time;durP1;ratioP1;P1;durP2;ratioP2;P2;SDS_P1;SDS_P2;PMS_P1;PMS_P2;Temp;Humidity;BMP_temperature;BMP_pressure;BME280_temperature;BME280_humidity;BME280_pressure;Samples;Min_cycle;Max_cycle;Signal;HPM_P1;HPM_P2
2021/04/26 00:02:11;;;;;;;3.50;2.63;;;9.80;48.70;;;;;;5005873;28;20477;-47
2021/04/26 00:04:37;;;;;;;4.07;2.83;;;9.90;48.80;;;;;;5005066;28;20492;-47
2021/04/26 00:07:04;;;;;;;3.93;2.27;;;9.90;48.30;;;;;;5004822;28;20801;-46
2021/04/26 00:09:30;;;;;;;5.50;2.60;;;9.80;48.60;;;;;;5004264;28;20464;-47
2021/04/26 00:11:56;;;;;;;3.60;2.13;;;9.80;48.90;;;;;;5005408;28;20972;-47
2021/04/26 00:14:23;;;;;;;3.07;2.67;;;9.80;48.90;;;;;;5002813;28;20609;-47
2021/04/26 00:16:49;;;;;;;4.23;2.53;;;9.80;48.80;;;;;;5005289;28;20555;-47
2021/04/26 00:19:15;;;;;;;4.17;2.13;;;9.80;49.00;;;;;;5003447;28;20464;-47
2021/04/26 00:21:42;;;;;;;4.07;2.60;;;9.80;48.90;;;;;;5002467;28;20464;-47
2021/04/26 00:24:10;;;;;;;4.20;2.40;;;9.70;48.90;;;;;;5003288;28;20828;-47
2021/04/26 00:26:36;;;;;;;6.10;3.73;;;9.70;49.10;;;;;;5002059;28;20464;-47
2021/04/26 00:29:03;;;;;;;4.60;2.27;;;9.70;49.10;;;;;;5002336;28;20491;-47
2021/04/26 00:31:29;;;;;;;3.27;1.93;;;9.70;49.00;;;;;;5038357;28;21036;-47
2021/04/26 00:33:56;;;;;;;3.70;2.33;;;9.70;49.30;;;;;;5007424;28;20492;-47
2021/04/26 00:36:23;;;;;;;9.27;2.73;;;9.60;49.20;;;;;;5007471;28;21112;-47
2021/04/26 00:38:50;;;;;;;2.50;1.80;;;9.70;49.20;;;;;;5007512;28;20460;-47
2021/04/26 00:41:16;;;;;;;3.80;2.33;;;9.60;49.40;;;;;;5008264;28;20480;-47
2021/04/26 00:43:43;;;;;;;7.53;2.60;;;9.60;49.30;;;;;;5004786;28;20898;-47
2021/04/26 00:46:11;;;;;;;5.63;2.53;;;9.60;49.00;;;;;;5040434;28;20555;-47
2021/04/26 00:48:38;;;;;;;5.17;2.60;;;9.50;49.20;;;;;;5004192;28;20528;-47
2021/04/26 00:51:05;;;;;;;2.90;2.60;;;9.50;49.20;;;;;;5003794;28;20552;-47
2021/04/26 00:53:31;;;;;;;4.53;2.87;;;9.50;49.40;;;;;;5007705;28;20482;-47
2021/04/26 00:55:57;;;;;;;5.23;2.80;;;9.50;49.50;;;;;;5004645;28;20475;-47
2021/04/26 00:58:24;;;;;;;3.90;2.30;;;9.50;49.70;;;;;;5026462;28;20454;-46
2021/04/26 01:00:51;;;;;;;4.93;2.40;;;9.50;49.50;;;;;;5003615;28;20490;-46
2021/04/26 01:03:18;;;;;;;4.80;2.30;;;9.50;49.50;;;;;;5007682;28;20456;-46
2021/04/26 01:05:44;;;;;;;3.80;2.20;;;9.40;49.40;;;;;;5007737;28;20888;-46
2021/04/26 01:08:10;;;;;;;3.80;2.37;;;9.40;49.60;;;;;;5008980;28;20492;-46
2021/04/26 01:10:37;;;;;;;3.00;2.77;;;9.40;49.90;;;;;;5005487;28;20464;-46
2021/04/26 01:13:52;;;;;;;6.43;2.80;;;9.30;50.30;;;;;;5002810;28;20880;-46
2021/04/26 01:16:26;;;;;;;3.40;2.43;;;9.30;50.20;;;;;;5001598;28;20493;-47
2021/04/26 01:19:05;;;;;;;5.23;3.17;;;9.30;50.00;;;;;;5004308;28;20996;-47
2021/04/26 01:22:11;;;;;;;3.70;2.50;;;9.30;50.30;;;;;;5005335;28;20464;-47
2021/04/26 01:24:49;;;;;;;3.07;2.50;;;9.20;50.40;;;;;;5003853;28;20464;-47
2021/04/26 01:27:38;;;;;;;3.40;2.20;;;9.30;50.40;;;;;;5041834;28;20564;-47
2021/04/26 01:30:10;;;;;;;3.63;3.20;;;9.20;50.30;;;;;;5007274;28;20483;-47
2021/04/26 01:32:42;;;;;;;4.07;2.30;;;9.20;50.50;;;;;;5005417;28;20461;-47
2021/04/26 01:35:12;;;;;;;3.30;2.43;;;9.20;50.60;;;;;;5004744;28;20467;-47
2021/04/26 01:37:41;;;;;;;3.80;2.70;;;9.10;50.60;;;;;;5037711;28;20564;-47
2021/04/26 01:40:13;;;;;;;6.13;2.73;;;9.10;50.60;;;;;;5023952;28;20459;-47
2021/04/26 01:42:42;;;;;;;4.33;2.83;;;9.10;50.60;;;;;;5005258;28;20465;-47
2021/04/26 01:45:12;;;;;;;2.97;2.50;;;9.00;50.50;;;;;;5006801;28;20460;-47
2021/04/26 01:47:40;;;;;;;4.63;2.83;;;9.00;50.70;;;;;;5004273;28;20488;-47
2021/04/26 01:50:09;;;;;;;5.07;3.00;;;9.10;51.00;;;;;;5038487;28;20456;-47
2021/04/26 01:52:36;;;;;;;3.77;2.77;;;9.00;50.80;;;;;;5006248;28;20460;-47
2021/04/26 01:55:06;;;;;;;4.50;2.97;;;9.00;50.50;;;;;;5007904;28;20460;-47
2021/04/26 01:57:32;;;;;;;7.37;3.00;;;9.00;50.80;;;;;;5021651;28;20464;-47
2021/04/26 02:00:10;;;;;;;3.80;2.70;;;9.00;50.60;;;;;;5007435;28;20821;-47
2021/04/26 02:02:37;;;;;;;6.90;2.60;;;9.00;50.40;;;;;;5007144;28;20990;-47
2021/04/26 02:05:06;;;;;;;4.50;2.17;;;8.90;50.70;;;;;;5005862;28;20472;-47
2021/04/26 02:07:33;;;;;;;6.17;2.63;;;8.90;51.00;;;;;;5005262;28;20488;-47
2021/04/26 02:10:00;;;;;;;7.80;2.53;;;8.90;51.00;;;;;;5001645;28;20989;-47
2021/04/26 02:12:26;;;;;;;2.93;2.73;;;8.90;50.90;;;;;;5023460;28;21098;-47
2021/04/26 02:14:53;;;;;;;5.33;2.90;;;8.90;51.00;;;;;;5006499;28;20448;-47
2021/04/26 02:17:20;;;;;;;4.90;2.37;;;8.90;51.30;;;;;;5023364;28;20463;-47
2021/04/26 02:19:47;;;;;;;5.13;2.40;;;8.90;51.60;;;;;;5006753;28;20468;-47
2021/04/26 02:22:14;;;;;;;5.73;2.53;;;8.90;51.40;;;;;;5007940;28;20465;-47
2021/04/26 02:24:40;;;;;;;3.23;2.40;;;8.80;51.60;;;;;;5006696;28;20468;-46
2021/04/26 02:27:07;;;;;;;2.50;2.13;;;8.80;51.60;;;;;;5003519;28;20460;-48
2021/04/26 02:29:34;;;;;;;4.60;2.70;;;8.70;51.30;;;;;;5020606;28;20972;-47
2021/04/26 02:32:06;;;;;;;5.97;2.90;;;8.70;51.40;;;;;;5001517;28;20551;-47
2021/04/26 02:34:38;;;;;;;2.43;2.27;;;8.60;51.70;;;;;;5008689;28;20515;-47
2021/04/26 02:37:12;;;;;;;3.30;2.30;;;8.60;51.80;;;;;;5005253;28;20804;-47
2021/04/26 02:39:40;;;;;;;3.57;2.77;;;8.60;51.50;;;;;;5006267;28;20460;-47
2021/04/26 02:42:07;;;;;;;4.13;2.20;;;8.60;51.50;;;;;;5006023;28;20518;-47
2021/04/26 02:44:36;;;;;;;2.53;2.33;;;8.60;51.70;;;;;;5001962;28;20471;-47
2021/04/26 02:47:08;;;;;;;4.40;2.80;;;8.60;51.70;;;;;;5003792;28;20465;-47
2021/04/26 02:49:38;;;;;;;3.73;2.37;;;8.50;51.80;;;;;;5009062;28;20441;-47
2021/04/26 02:52:06;;;;;;;4.87;2.70;;;8.50;51.80;;;;;;5002345;28;20471;-47
2021/04/26 02:54:34;;;;;;;4.23;2.67;;;8.50;51.80;;;;;;5016641;28;20500;-47
2021/04/26 02:57:03;;;;;;;5.60;2.80;;;8.40;52.00;;;;;;5003576;28;20977;-47
2021/04/26 02:59:32;;;;;;;6.47;3.10;;;8.40;52.00;;;;;;5006643;28;20520;-47
2021/04/26 03:01:58;;;;;;;3.17;2.77;;;8.40;52.00;;;;;;5001768;28;20464;-47
2021/04/26 03:04:29;;;;;;;2.93;2.27;;;8.40;52.10;;;;;;5004456;28;20468;-47
2021/04/26 03:06:59;;;;;;;4.27;2.77;;;8.40;51.90;;;;;;5004851;28;20883;-47
2021/04/26 03:09:26;;;;;;;4.83;2.93;;;8.40;52.10;;;;;;5018367;28;20841;-47
2021/04/26 03:11:54;;;;;;;2.93;2.53;;;8.40;52.10;;;;;;5020957;28;20457;-47
2021/04/26 03:14:21;;;;;;;3.50;2.60;;;8.30;52.10;;;;;;5005385;28;20470;-47
2021/04/26 03:16:48;;;;;;;3.50;2.63;;;8.30;52.30;;;;;;5004544;28;20480;-47
2021/04/26 03:19:16;;;;;;;3.00;2.40;;;8.30;52.00;;;;;;5022390;28;20449;-47
2021/04/26 03:21:45;;;;;;;5.10;3.07;;;8.20;52.30;;;;;;5004439;28;20453;-47
2021/04/26 03:24:15;;;;;;;5.50;3.03;;;8.20;52.50;;;;;;5006483;28;20448;-47
2021/04/26 03:26:44;;;;;;;3.17;2.40;;;8.20;52.70;;;;;;5005360;28;20460;-47
2021/04/26 03:29:15;;;;;;;4.23;2.67;;;8.10;52.70;;;;;;5006760;28;20499;-47
2021/04/26 03:31:42;;;;;;;2.40;2.20;;;8.10;52.70;;;;;;5004573;28;20930;-47
2021/04/26 03:34:09;;;;;;;3.23;2.50;;;8.20;52.70;;;;;;5006035;28;20464;-47
2021/04/26 03:36:37;;;;;;;4.47;2.37;;;8.20;52.70;;;;;;5004835;28;20798;-47
2021/04/26 03:39:08;;;;;;;6.37;2.70;;;8.20;52.40;;;;;;5007940;28;20453;-46
2021/04/26 03:41:35;;;;;;;2.93;2.50;;;8.10;52.50;;;;;;5004086;28;20945;-47
2021/04/26 03:44:01;;;;;;;4.07;2.80;;;8.00;52.50;;;;;;5019210;28;20467;-47
2021/04/26 03:46:27;;;;;;;3.20;2.90;;;8.10;52.50;;;;;;5005462;28;23583;-47
2021/04/26 03:48:54;;;;;;;3.30;2.70;;;8.00;52.60;;;;;;5004303;28;20504;-47
2021/04/26 03:51:23;;;;;;;5.77;2.97;;;8.00;52.60;;;;;;5004726;28;20788;-47
2021/04/26 03:53:49;;;;;;;4.40;2.57;;;7.90;52.60;;;;;;5003362;28;20671;-46
2021/04/26 03:56:16;;;;;;;8.20;2.87;;;7.90;52.80;;;;;;5007870;28;20459;-47
2021/04/26 03:58:47;;;;;;;4.17;2.40;;;7.90;52.70;;;;;;5005640;28;20842;-47
2021/04/26 04:01:14;;;;;;;3.80;2.43;;;7.80;53.00;;;;;;5002223;28;20457;-47
2021/04/26 04:03:40;;;;;;;3.00;2.50;;;7.90;53.10;;;;;;5005371;28;20472;-46
2021/04/26 04:06:06;;;;;;;6.00;2.50;;;7.90;53.00;;;;;;5011491;28;20465;-47
2021/04/26 04:08:32;;;;;;;3.47;2.23;;;7.80;52.90;;;;;;5005656;28;20502;-47
2021/04/26 04:10:58;;;;;;;4.70;2.07;;;7.80;53.00;;;;;;5008316;28;20487;-47
2021/04/26 04:13:25;;;;;;;5.30;2.57;;;7.80;53.00;;;;;;5007102;28;20972;-47
2021/04/26 04:15:51;;;;;;;4.73;2.67;;;7.80;53.00;;;;;;5010242;28;20575;-47
2021/04/26 04:18:17;;;;;;;3.77;2.20;;;7.70;53.10;;;;;;5010412;28;20460;-47
2021/04/26 04:20:43;;;;;;;2.77;2.23;;;7.70;53.10;;;;;;5009248;28;20456;-47
2021/04/26 04:23:10;;;;;;;10.83;3.37;;;7.70;53.10;;;;;;5006269;28;20981;-47
2021/04/26 04:25:39;;;;;;;5.23;3.10;;;7.70;53.20;;;;;;5007551;28;20456;-47
2021/04/26 04:28:06;;;;;;;3.93;2.60;;;7.80;53.00;;;;;;5006860;28;20495;-46
2021/04/26 04:30:32;;;;;;;3.10;2.27;;;7.80;52.50;;;;;;5022561;28;20460;-47
2021/04/26 04:32:58;;;;;;;6.13;4.23;;;7.80;52.70;;;;;;5007070;28;20462;-47
2021/04/26 04:35:25;;;;;;;3.73;2.50;;;7.70;52.50;;;;;;5021756;28;20464;-47
2021/04/26 04:37:51;;;;;;;3.53;2.47;;;7.70;52.80;;;;;;5009720;28;20467;-47
2021/04/26 04:40:17;;;;;;;3.40;1.83;;;7.60;53.10;;;;;;5008976;28;20733;-47
2021/04/26 04:42:43;;;;;;;4.20;2.60;;;7.60;53.00;;;;;;5003112;28;20469;-47
2021/04/26 04:45:10;;;;;;;2.70;2.30;;;7.60;53.00;;;;;;5003367;28;20474;-47
2021/04/26 04:47:37;;;;;;;4.00;2.53;;;7.50;53.30;;;;;;5007829;28;21031;-47
2021/04/26 04:50:04;;;;;;;4.50;2.50;;;7.60;53.10;;;;;;5007289;28;20448;-47
2021/04/26 04:52:30;;;;;;;4.40;2.30;;;7.50;53.10;;;;;;5009877;28;20467;-47
2021/04/26 04:54:57;;;;;;;4.57;2.07;;;7.50;53.20;;;;;;5005579;28;20705;-46
2021/04/26 04:57:24;;;;;;;2.50;2.30;;;7.50;53.00;;;;;;5004397;28;20464;-47
2021/04/26 04:59:50;;;;;;;6.23;2.70;;;7.60;53.10;;;;;;5008986;28;20457;-47
2021/04/26 05:02:16;;;;;;;3.93;2.43;;;7.60;53.20;;;;;;5010848;28;20475;-47
2021/04/26 05:04:43;;;;;;;6.37;2.33;;;7.60;53.20;;;;;;5008242;28;20524;-47
2021/04/26 05:07:09;;;;;;;3.70;1.93;;;7.60;53.00;;;;;;5011816;28;20441;-47
2021/04/26 05:09:35;;;;;;;4.90;2.33;;;7.70;52.70;;;;;;5006940;28;20535;-45
2021/04/26 05:12:01;;;;;;;3.00;2.57;;;7.70;52.40;;;;;;5010868;28;20828;-45
2021/04/26 05:14:28;;;;;;;1.97;1.87;;;7.70;52.40;;;;;;5021498;28;20455;-45
2021/04/26 05:16:56;;;;;;;5.47;2.20;;;7.80;52.00;;;;;;5009113;28;20488;-47
2021/04/26 05:19:23;;;;;;;3.20;1.73;;;7.80;52.30;;;;;;5024906;28;20500;-47
2021/04/26 05:21:50;;;;;;;2.77;1.73;;;7.80;52.10;;;;;;5007581;28;20449;-46
2021/04/26 05:24:16;;;;;;;4.37;3.20;;;7.80;52.00;;;;;;5022689;28;20797;-47
2021/04/26 05:26:42;;;;;;;2.50;1.87;;;7.80;51.50;;;;;;5005951;28;20471;-47
2021/04/26 05:29:09;;;;;;;1.87;1.50;;;7.90;51.80;;;;;;5024882;28;20488;-46
2021/04/26 05:31:35;;;;;;;5.50;2.37;;;7.90;51.30;;;;;;5009833;28;20456;-45
2021/04/26 05:34:01;;;;;;;2.97;1.80;;;7.90;50.50;;;;;;5021813;28;20809;-45
2021/04/26 05:36:28;;;;;;;2.23;1.80;;;8.00;50.40;;;;;;5023458;28;20836;-45
2021/04/26 05:38:54;;;;;;;4.33;2.50;;;8.00;50.40;;;;;;5009360;28;20445;-46
2021/04/26 05:41:20;;;;;;;3.30;1.93;;;8.10;49.50;;;;;;5025175;28;20456;-45
2021/04/26 05:43:46;;;;;;;2.80;1.63;;;8.10;49.40;;;;;;5016917;28;20461;-45
2021/04/26 05:46:14;;;;;;;2.10;1.90;;;8.10;49.20;;;;;;5006512;28;20464;-45
2021/04/26 05:48:41;;;;;;;1.93;1.73;;;8.10;49.40;;;;;;5008633;28;20693;-46
2021/04/26 05:51:07;;;;;;;2.47;2.20;;;8.20;49.30;;;;;;5005422;28;20972;-46
2021/04/26 05:53:34;;;;;;;1.87;1.40;;;8.30;49.00;;;;;;5006805;28;20967;-46
2021/04/26 05:56:01;;;;;;;5.37;1.77;;;8.30;48.40;;;;;;5004708;28;21757;-46
2021/04/26 05:58:28;;;;;;;3.63;1.50;;;8.30;48.40;;;;;;5009122;28;20452;-46
2021/04/26 06:00:54;;;;;;;2.70;1.57;;;8.30;48.80;;;;;;5008513;28;20456;-46
2021/04/26 06:03:20;;;;;;;2.87;2.03;;;8.40;48.90;;;;;;5005920;28;20540;-46
2021/04/26 06:05:46;;;;;;;2.83;1.80;;;8.40;48.40;;;;;;5006752;28;20836;-46
2021/04/26 06:08:16;;;;;;;2.43;1.63;;;8.50;48.00;;;;;;5007095;28;20484;-46
2021/04/26 06:10:43;;;;;;;2.73;1.40;;;8.60;48.70;;;;;;5023011;28;20448;-46
2021/04/26 06:13:09;;;;;;;2.80;1.47;;;8.60;48.40;;;;;;5005553;28;20456;-45
2021/04/26 06:15:36;;;;;;;3.93;1.50;;;8.70;48.10;;;;;;5006550;28;20468;-46
2021/04/26 06:18:22;;;;;;;2.83;1.90;;;8.70;47.70;;;;;;5007550;28;20523;-46
2021/04/26 06:20:51;;;;;;;3.50;2.37;;;8.80;47.90;;;;;;5021398;28;20852;-47
2021/04/26 06:23:18;;;;;;;2.97;2.37;;;8.90;47.60;;;;;;5006268;28;20504;-47
2021/04/26 06:25:46;;;;;;;5.60;2.23;;;9.00;47.70;;;;;;5022107;28;20813;-46
2021/04/26 06:28:13;;;;;;;2.60;1.70;;;9.10;48.10;;;;;;5005962;28;20494;-47
2021/04/26 06:30:42;;;;;;;4.00;2.00;;;9.20;47.10;;;;;;5005841;28;20456;-47
2021/04/26 06:33:15;;;;;;;3.90;2.30;;;9.30;47.50;;;;;;5019043;28;20474;-47
2021/04/26 06:35:51;;;;;;;2.30;2.10;;;9.30;46.70;;;;;;5005297;28;20484;-47
2021/04/26 06:38:19;;;;;;;9.53;2.53;;;9.40;47.10;;;;;;5004820;28;20962;-45
2021/04/26 06:40:45;;;;;;;6.10;2.00;;;9.50;47.60;;;;;;5004247;28;20551;-47
2021/04/26 06:43:12;;;;;;;5.87;2.40;;;9.60;47.10;;;;;;5002175;28;20465;-46
2021/04/26 06:45:39;;;;;;;3.80;2.10;;;9.70;46.70;;;;;;5003371;28;20483;-47
2021/04/26 06:48:12;;;;;;;2.97;2.37;;;9.80;47.20;;;;;;5007403;28;20488;-47
2021/04/26 06:50:38;;;;;;;4.43;2.40;;;10.00;46.10;;;;;;5002377;28;20464;-47
2021/04/26 06:53:05;;;;;;;2.90;2.47;;;10.00;45.90;;;;;;5005960;28;20471;-47
2021/04/26 06:55:31;;;;;;;3.07;2.20;;;10.20;46.80;;;;;;5005858;28;20468;-46
2021/04/26 06:57:58;;;;;;;5.60;2.93;;;10.20;46.10;;;;;;5004143;28;20475;-47
2021/04/26 07:00:26;;;;;;;3.67;2.20;;;10.40;44.60;;;;;;5001738;28;20595;-47
2021/04/26 07:02:52;;;;;;;3.87;2.67;;;10.50;44.90;;;;;;4998040;28;20468;-45
2021/04/26 07:05:19;;;;;;;5.40;3.47;;;10.60;44.40;;;;;;5022635;28;20988;-46
2021/04/26 07:07:46;;;;;;;3.70;2.47;;;10.80;45.40;;;;;;5005029;28;20696;-45
2021/04/26 07:10:12;;;;;;;4.03;2.00;;;10.90;44.50;;;;;;5004367;28;20809;-45
2021/04/26 07:12:39;;;;;;;3.90;2.40;;;11.00;43.20;;;;;;5020173;28;20489;-46
2021/04/26 07:15:08;;;;;;;4.83;2.83;;;11.10;43.40;;;;;;5002998;28;20481;-46
2021/04/26 07:17:34;;;;;;;8.00;2.57;;;11.20;43.50;;;;;;5007964;28;20532;-46
2021/04/26 07:20:06;;;;;;;5.83;3.40;;;11.40;42.90;;;;;;5004783;28;20499;-46
2021/04/26 07:22:32;;;;;;;4.33;2.63;;;11.40;42.40;;;;;;5016007;28;20460;-46
2021/04/26 07:24:59;;;;;;;4.13;2.73;;;11.50;42.10;;;;;;5003686;28;20457;-46
2021/04/26 07:27:26;;;;;;;3.70;2.40;;;11.60;41.40;;;;;;5004601;28;20465;-46
2021/04/26 07:29:52;;;;;;;3.17;2.70;;;11.70;41.80;;;;;;5022266;28;20456;-46
2021/04/26 07:32:21;;;;;;;3.97;2.20;;;11.80;42.50;;;;;;5003936;28;20478;-46
2021/04/26 07:34:47;;;;;;;6.20;2.50;;;11.90;42.10;;;;;;5005479;28;20482;-46
2021/04/26 07:37:13;;;;;;;3.90;2.20;;;12.00;41.90;;;;;;5004006;28;20448;-46
2021/04/26 07:39:40;;;;;;;3.13;2.40;;;12.20;42.70;;;;;;5008933;28;20478;-46
2021/04/26 07:42:07;;;;;;;4.27;2.27;;;12.30;42.40;;;;;;5004068;28;20466;-46
2021/04/26 07:44:33;;;;;;;2.67;2.40;;;12.50;42.40;;;;;;5011277;28;20472;-46
2021/04/26 07:47:00;;;;;;;4.60;2.40;;;12.70;40.80;;;;;;5026495;28;20470;-46
2021/04/26 07:49:26;;;;;;;4.43;2.50;;;12.80;40.00;;;;;;5008797;28;20488;-46
2021/04/26 07:51:53;;;;;;;3.03;2.23;;;13.00;40.70;;;;;;5007281;28;20460;-45
2021/04/26 07:54:19;;;;;;;5.03;2.30;;;13.10;40.50;;;;;;5007298;28;20463;-47
2021/04/26 07:56:45;;;;;;;2.90;2.20;;;13.20;40.50;;;;;;5006562;28;21177;-47
2021/04/26 07:59:12;;;;;;;2.57;2.20;;;13.40;40.00;;;;;;5006895;28;20943;-47
2021/04/26 08:01:38;;;;;;;5.77;2.33;;;13.50;38.80;;;;;;5001970;28;20467;-47
2021/04/26 08:04:05;;;;;;;5.10;2.47;;;13.70;38.60;;;;;;5007689;28;20838;-47
2021/04/26 08:06:32;;;;;;;4.20;2.23;;;13.80;39.20;;;;;;5008311;28;20623;-47
2021/04/26 08:08:58;;;;;;;3.20;2.13;;;14.00;38.60;;;;;;5008847;28;20496;-46
2021/04/26 08:11:24;;;;;;;5.50;2.53;;;14.10;38.60;;;;;;5009841;28;20460;-45
2021/04/26 08:13:51;;;;;;;4.80;3.00;;;14.20;37.80;;;;;;5005377;28;20819;-46
2021/04/26 08:16:18;;;;;;;4.63;2.50;;;14.40;37.20;;;;;;5008472;28;20481;-46
2021/04/26 08:18:44;;;;;;;5.40;2.30;;;14.50;37.20;;;;;;5011736;28;20468;-46
2021/04/26 08:21:11;;;;;;;6.10;2.40;;;14.70;37.30;;;;;;5008490;28;20463;-46
2021/04/26 08:23:38;;;;;;;6.03;2.80;;;14.80;37.00;;;;;;5003168;28;20463;-47
2021/04/26 08:26:05;;;;;;;3.23;2.20;;;14.90;36.20;;;;;;5008188;28;20496;-47
2021/04/26 08:28:33;;;;;;;3.33;2.40;;;15.10;37.20;;;;;;5008411;28;20489;-47
2021/04/26 08:31:01;;;;;;;5.73;3.17;;;15.20;37.20;;;;;;5005735;28;20784;-46
2021/04/26 08:33:28;;;;;;;3.97;2.50;;;15.30;36.70;;;;;;5021500;28;20973;-46
2021/04/26 08:35:55;;;;;;;3.60;2.50;;;15.40;36.10;;;;;;5004525;28;20463;-47
2021/04/26 08:38:21;;;;;;;3.93;2.67;;;15.60;35.40;;;;;;5012632;28;20953;-46
2021/04/26 08:40:47;;;;;;;4.90;2.57;;;15.70;34.80;;;;;;5011234;28;20452;-45
2021/04/26 08:43:17;;;;;;;5.90;2.80;;;16.00;34.40;;;;;;5010230;28;20476;-45
2021/04/26 08:45:43;;;;;;;5.23;2.30;;;16.20;34.50;;;;;;5011027;28;20551;-46
2021/04/26 08:48:10;;;;;;;5.13;2.57;;;16.40;34.50;;;;;;5012166;28;20567;-46
2021/04/26 08:50:36;;;;;;;6.00;2.37;;;16.60;33.50;;;;;;5010363;28;20899;-46
2021/04/26 08:53:03;;;;;;;3.93;1.90;;;16.80;34.20;;;;;;5012059;28;20837;-47
2021/04/26 08:55:30;;;;;;;3.60;2.37;;;17.00;33.80;;;;;;5005650;28;20464;-45
2021/04/26 08:57:56;;;;;;;3.80;2.63;;;;;;;;;;5010035;28;20820;-46
2021/04/26 09:00:23;;;;;;;3.63;2.67;;;17.60;32.20;;;;;;5006715;28;20466;-47
2021/04/26 09:03:01;;;;;;;2.77;2.13;;;17.90;31.40;;;;;;5011842;28;20452;-45
2021/04/26 09:05:39;;;;;;;2.90;2.30;;;18.20;31.40;;;;;;5011384;28;20563;-45
2021/04/26 09:08:10;;;;;;;2.87;2.43;;;18.40;31.70;;;;;;5010203;28;20487;-45
2021/04/26 09:10:39;;;;;;;5.33;2.37;;;18.80;31.00;;;;;;5012419;28;20460;-46
2021/04/26 09:13:25;;;;;;;2.17;1.97;;;19.10;30.90;;;;;;5008530;28;20542;-46
2021/04/26 09:16:06;;;;;;;2.90;2.33;;;19.50;29.40;;;;;;5006135;28;20488;-47
2021/04/26 09:18:51;;;;;;;2.73;2.17;;;19.90;29.10;;;;;;5008015;28;20503;-46
2021/04/26 09:21:23;;;;;;;4.73;2.33;;;20.30;29.10;;;;;;5006137;28;20826;-46
2021/04/26 09:24:24;;;;;;;4.63;2.13;;;20.70;28.80;;;;;;5010251;28;20456;-46
2021/04/26 09:27:09;;;;;;;6.90;2.43;;;21.10;28.50;;;;;;5020975;28;20968;-46
2021/04/26 09:29:37;;;;;;;2.97;2.60;;;21.30;28.00;;;;;;5008836;28;21000;-46
2021/04/26 09:32:06;;;;;;;4.43;2.13;;;21.60;27.40;;;;;;5007475;28;20452;-46
2021/04/26 09:34:37;;;;;;;5.13;2.33;;;21.80;27.10;;;;;;5010875;28;20449;-46
2021/04/26 09:37:16;;;;;;;7.03;2.27;;;22.00;26.40;;;;;;5010246;28;20460;-46
2021/04/26 09:40:03;;;;;;;5.27;2.17;;;22.30;26.30;;;;;;5020088;28;21036;-46
2021/04/26 09:42:34;;;;;;;2.97;2.00;;;22.70;24.90;;;;;;5004902;28;20538;-46
2021/04/26 09:45:19;;;;;;;5.40;3.23;;;23.10;24.50;;;;;;5007183;28;20930;-46
2021/04/26 09:47:46;;;;;;;2.90;2.30;;;23.40;23.70;;;;;;5007995;28;20482;-46
2021/04/26 09:50:13;;;;;;;2.03;1.87;;;23.70;23.60;;;;;;5008237;28;20460;-46
2021/04/26 09:52:40;;;;;;;6.90;2.33;;;23.90;23.10;;;;;;5009099;28;20444;-46
2021/04/26 09:55:26;;;;;;;2.50;2.30;;;24.10;22.20;;;;;;5010086;28;20882;-46
2021/04/26 09:57:53;;;;;;;2.37;2.10;;;24.40;22.50;;;;;;5008779;28;20444;-46
2021/04/26 10:00:20;;;;;;;2.30;2.10;;;24.60;22.80;;;;;;5008862;28;20543;-46
2021/04/26 10:02:47;;;;;;;3.70;1.97;;;24.80;22.40;;;;;;5008509;28;20447;-46
2021/04/26 10:05:16;;;;;;;3.20;2.03;;;25.00;21.50;;;;;;5008188;28;20530;-46
2021/04/26 10:07:45;;;;;;;4.90;2.10;;;25.10;21.50;;;;;;5009332;28;20944;-47
2021/04/26 10:10:13;;;;;;;2.40;1.93;;;25.20;21.60;;;;;;5008823;28;20524;-47
2021/04/26 10:12:40;;;;;;;2.90;2.20;;;25.40;21.50;;;;;;5009037;28;20934;-46
2021/04/26 10:15:08;;;;;;;3.97;2.03;;;25.40;21.40;;;;;;5003069;28;21302;-46
2021/04/26 10:17:38;;;;;;;3.50;2.10;;;25.30;20.10;;;;;;5007152;28;20447;-47
2021/04/26 10:20:06;;;;;;;3.80;1.97;;;25.50;20.20;;;;;;5009660;28;20439;-47
2021/04/26 10:22:40;;;;;;;2.80;1.57;;;25.50;21.00;;;;;;5007317;28;20478;-47
2021/04/26 10:25:10;;;;;;;3.37;2.60;;;25.50;20.00;;;;;;5024809;28;20539;-47
2021/04/26 10:27:41;;;;;;;2.83;1.93;;;25.30;19.60;;;;;;5004818;28;20451;-46
2021/04/26 10:30:10;;;;;;;8.33;1.87;;;25.10;20.10;;;;;;5000331;28;20489;-46
2021/04/26 10:32:57;;;;;;;2.80;2.07;;;25.00;20.70;;;;;;5008014;28;20811;-47
2021/04/26 10:35:41;;;;;;;2.73;2.10;;;24.70;21.60;;;;;;5005822;28;20515;-47
2021/04/26 10:38:34;;;;;;;4.50;1.73;;;24.50;22.00;;;;;;5006046;28;20816;-46
2021/04/26 10:41:02;;;;;;;3.63;1.97;;;24.20;21.70;;;;;;5004006;28;20499;-46
2021/04/26 10:43:31;;;;;;;3.47;2.77;;;23.90;22.40;;;;;;5008149;28;20958;-46
2021/04/26 10:46:16;;;;;;;3.90;2.17;;;23.80;21.80;;;;;;5010338;28;20455;-47
2021/04/26 10:49:07;;;;;;;2.20;1.80;;;23.60;22.10;;;;;;5008329;28;20499;-47
2021/04/26 10:51:36;;;;;;;4.63;2.20;;;23.40;23.10;;;;;;5019362;28;20471;-46
2021/04/26 10:54:05;;;;;;;2.20;1.90;;;23.20;23.10;;;;;;5004487;28;20940;-46
2021/04/26 10:56:34;;;;;;;3.80;1.80;;;23.00;23.20;;;;;;5006234;28;20465;-46
2021/04/26 10:59:16;;;;;;;2.57;1.60;;;22.70;24.00;;;;;;5005007;28;20894;-46
2021/04/26 11:01:45;;;;;;;2.73;1.87;;;22.50;24.60;;;;;;5004585;28;20547;-47
2021/04/26 11:04:13;;;;;;;2.47;1.43;;;22.20;24.40;;;;;;5006339;28;20467;-46
2021/04/26 11:06:40;;;;;;;3.77;1.90;;;22.00;24.90;;;;;;5006959;28;20944;-46
2021/04/26 11:09:09;;;;;;;3.40;1.63;;;21.90;23.90;;;;;;5009767;28;20579;-46
2021/04/26 11:11:52;;;;;;;4.03;2.00;;;21.70;24.50;;;;;;5009466;28;20885;-46
2021/04/26 11:14:24;;;;;;;3.57;1.40;;;21.60;24.70;;;;;;5006299;28;20464;-47
2021/04/26 11:17:02;;;;;;;3.63;2.00;;;21.40;24.40;;;;;;5007657;28;21051;-46
2021/04/26 11:19:50;;;;;;;1.83;1.30;;;21.30;23.40;;;;;;5006041;28;20464;-46
2021/04/26 11:22:33;;;;;;;3.07;1.70;;;21.30;23.80;;;;;;5005740;28;21019;-46
2021/04/26 11:25:01;;;;;;;1.97;1.43;;;21.20;24.40;;;;;;5009068;28;20468;-46
2021/04/26 11:27:28;;;;;;;2.70;1.37;;;21.10;24.60;;;;;;5009485;28;20453;-46
2021/04/26 11:29:55;;;;;;;1.70;1.60;;;21.00;23.90;;;;;;5008481;28;20492;-46
2021/04/26 11:32:26;;;;;;;3.77;1.70;;;20.90;24.40;;;;;;5008089;28;20954;-46
2021/04/26 11:35:01;;;;;;;2.30;1.50;;;20.90;24.40;;;;;;5005622;28;20448;-46
2021/04/26 11:37:30;;;;;;;1.47;1.17;;;20.80;25.80;;;;;;5008475;28;20905;-46
2021/04/26 11:39:57;;;;;;;1.57;1.17;;;20.70;25.50;;;;;;5002648;28;20537;-46
2021/04/26 11:42:25;;;;;;;2.00;1.30;;;20.70;24.90;;;;;;5004541;28;20977;-46
2021/04/26 11:44:53;;;;;;;2.87;1.47;;;20.70;24.80;;;;;;5005025;28;20468;-46
2021/04/26 11:47:21;;;;;;;3.30;1.60;;;20.60;25.20;;;;;;5009784;28;20527;-46
2021/04/26 11:49:56;;;;;;;1.30;1.10;;;20.60;24.80;;;;;;5006249;28;21017;-46
2021/04/26 11:52:25;;;;;;;2.03;0.73;;;20.60;24.40;;;;;;5025229;28;20534;-46
2021/04/26 11:55:13;;;;;;;2.80;1.00;;;20.50;24.80;;;;;;5008790;28;20469;-46
2021/04/26 11:57:42;;;;;;;3.70;1.03;;;20.40;25.30;;;;;;5009051;28;20539;-46
2021/04/26 12:00:22;;;;;;;2.90;1.13;;;20.30;24.40;;;;;;5006157;28;20476;-46
2021/04/26 12:02:50;;;;;;;1.73;1.27;;;20.20;23.70;;;;;;5007273;28;20547;-46
2021/04/26 12:05:19;;;;;;;1.67;1.00;;;20.10;24.20;;;;;;5021589;28;20845;-46
2021/04/26 12:07:46;;;;;;;1.53;1.30;;;20.10;24.90;;;;;;5008912;28;20452;-46
2021/04/26 12:10:21;;;;;;;3.23;1.23;;;20.10;24.40;;;;;;5009217;28;20490;-46
2021/04/26 12:12:49;;;;;;;2.40;1.23;;;20.10;26.00;;;;;;5007920;28;20450;-46
2021/04/26 12:15:17;;;;;;;4.70;1.10;;;20.20;25.30;;;;;;5005623;28;21035;-46
2021/04/26 12:17:51;;;;;;;6.90;1.13;;;20.30;24.30;;;;;;5008863;28;20968;-46
2021/04/26 12:20:44;;;;;;;2.90;1.10;;;20.30;24.20;;;;;;5008697;28;20488;-47
2021/04/26 12:23:20;;;;;;;2.77;1.03;;;20.40;25.90;;;;;;5008164;28;20938;-46
2021/04/26 12:25:48;;;;;;;1.80;1.27;;;20.40;26.10;;;;;;5025704;28;20543;-46
2021/04/26 12:28:18;;;;;;;1.60;1.50;;;20.30;25.80;;;;;;5012597;28;20973;-46
2021/04/26 12:30:46;;;;;;;2.00;1.30;;;20.30;26.20;;;;;;5026001;28;20483;-46
2021/04/26 12:33:23;;;;;;;1.60;1.50;;;20.30;25.00;;;;;;5012441;28;20818;-46
2021/04/26 12:35:50;;;;;;;1.03;0.90;;;20.40;25.20;;;;;;5013524;28;20486;-46
2021/04/26 12:38:22;;;;;;;3.03;1.10;;;20.40;25.20;;;;;;5006187;28;20557;-46
2021/04/26 12:40:50;;;;;;;1.10;1.00;;;20.50;24.70;;;;;;5010673;28;20463;-46
2021/04/26 12:43:16;;;;;;;2.10;1.50;;;20.50;24.80;;;;;;5024350;28;20463;-46
2021/04/26 12:45:46;;;;;;;3.47;1.30;;;20.50;25.40;;;;;;5008861;28;20457;-46
2021/04/26 12:48:17;;;;;;;2.20;1.13;;;20.40;24.60;;;;;;5011134;28;20478;-46
2021/04/26 12:50:47;;;;;;;2.53;1.40;;;20.30;25.20;;;;;;5010021;28;20464;-46
2021/04/26 12:53:21;;;;;;;2.50;1.57;;;20.30;24.90;;;;;;5012194;28;20509;-46
2021/04/26 12:56:04;;;;;;;3.47;1.20;;;20.30;24.70;;;;;;5007780;28;20452;-46
2021/04/26 12:58:42;;;;;;;3.37;1.90;;;20.30;24.70;;;;;;5009560;28;20460;-46
2021/04/26 13:01:14;;;;;;;2.47;1.47;;;20.30;25.50;;;;;;5008952;28;20543;-46
2021/04/26 13:03:53;;;;;;;3.07;1.63;;;20.40;25.40;;;;;;5008693;28;20476;-46
2021/04/26 13:06:24;;;;;;;2.73;1.30;;;20.40;25.70;;;;;;5010220;28;20456;-46